Shelley Lind — WDC8367 — position and weather

sailwx.info

Track history (hours):
 
Tides and Currents Weather Stations Pressure Air Temp Water Temp Dewpoint Dewpoint Depression Visibility Wind Speed Wind Dir Waves Ship Positions

Shelley Lind

Owner: Riverview Equipment Company, LLC, Petaluma, CA. More information available from US FCC via Universal Licensing System and Coast Guard Vessel Documentation Center.

Last reported at 2018-Jun-22 00:00 UTC. Time now 2018-Jun-22 00:01 UTC.
Position N 37°52' W 122°19'.

; draft 2 m.

Type: Tug. MMSI: 367085940.

Date/timePositionNaut miles runAvg speedWind from/ knotsBaromVisibWave heightAir tempDewpointWater temp
2018-Jun-22 00:00N 37°52' W 122°19'0 0.0
2018-Jun-21 23:30N 37°52' W 122°19'0 0.0
2018-Jun-21 23:00N 37°52' W 122°19'0 0.0
2018-Jun-21 22:30N 37°52' W 122°19'0 0.0
2018-Jun-21 22:00N 37°52' W 122°19'0 0.0
2018-Jun-21 21:30N 37°52' W 122°19'0 0.0
2018-Jun-21 21:00N 37°52' W 122°19'0 0.0
2018-Jun-21 20:30N 37°52' W 122°19'0 0.0
2018-Jun-21 20:00N 37°52' W 122°19'0 0.0
2018-Jun-21 19:30N 37°52' W 122°19'0 0.0
2018-Jun-21 19:00N 37°52' W 122°19'0 0.0
2018-Jun-21 18:31N 37°52' W 122°19'0 0.0
2018-Jun-21 18:00N 37°52' W 122°19'0 0.0
2018-Jun-21 17:30N 37°52' W 122°19'0 0.1
2018-Jun-21 16:58N 37°52' W 122°19'0 0.6
2018-Jun-21 16:30N 37°52' W 122°19'2 4.7
2018-Jun-21 16:00N 37°51' W 122°22'3 5.1
2018-Jun-21 15:30N 37°53' W 122°24'3 5.7
2018-Jun-21 15:00N 37°56' W 122°25'9 5.0
2018-Jun-21 13:16N 38°03' W 122°19'4 5.5
2018-Jun-21 12:33N 38°05' W 122°15'  
Track history (hours):
 
Tides and Currents Weather Stations Pressure Air Temp Water Temp Dewpoint Dewpoint Depression Visibility Wind Speed Wind Dir Waves Ship Positions

Shelley Lind

Owner: Riverview Equipment Company, LLC, Petaluma, CA. More information available from US FCC via Universal Licensing System and Coast Guard Vessel Documentation Center.

Last reported at 2018-Jun-22 00:00 UTC. Time now 2018-Jun-22 00:01 UTC.
Position N 37°52' W 122°19'.

; draft 2 m.

Type: Tug. MMSI: 367085940.

Date/timePositionNaut miles runAvg speedWind from/ knotsBaromVisibWave heightAir tempDewpointWater temp
2018-Jun-22 00:00N 37°52' W 122°19'0 0.0
2018-Jun-21 23:30N 37°52' W 122°19'0 0.0
2018-Jun-21 23:00N 37°52' W 122°19'0 0.0
2018-Jun-21 22:30N 37°52' W 122°19'0 0.0
2018-Jun-21 22:00N 37°52' W 122°19'0 0.0
2018-Jun-21 21:30N 37°52' W 122°19'0 0.0
2018-Jun-21 21:00N 37°52' W 122°19'0 0.0
2018-Jun-21 20:30N 37°52' W 122°19'0 0.0
2018-Jun-21 20:00N 37°52' W 122°19'0 0.0
2018-Jun-21 19:30N 37°52' W 122°19'0 0.0
2018-Jun-21 19:00N 37°52' W 122°19'0 0.0
2018-Jun-21 18:31N 37°52' W 122°19'0 0.0
2018-Jun-21 18:00N 37°52' W 122°19'0 0.0
2018-Jun-21 17:30N 37°52' W 122°19'0 0.1
2018-Jun-21 16:58N 37°52' W 122°19'0 0.6
2018-Jun-21 16:30N 37°52' W 122°19'2 4.7
2018-Jun-21 16:00N 37°51' W 122°22'3 5.1
2018-Jun-21 15:30N 37°53' W 122°24'3 5.7
2018-Jun-21 15:00N 37°56' W 122°25'9 5.0
2018-Jun-21 13:16N 38°03' W 122°19'4 5.5
2018-Jun-21 12:33N 38°05' W 122°15'  

Dump ship's entire track history